Time;durP1;ratioP1;P1;durP2;ratioP2;P2;SDS_P1;SDS_P2;PMS_P1;PMS_P2;Temp;Humidity;BMP_temperature;BMP_pressure;BME280_temperature;BME280_humidity;BME280_pressure;Samples;Min_cycle;Max_cycle;Signal;HPM_P1;HPM_P2
2022/07/07 00:01:46;;;;;;;;;;;;;;;29.83;31.39;101537.91;4420885;32;19957;-68
2022/07/07 00:04:11;;;;;;;;;;;;;;;29.79;31.31;101525.84;4421131;32;19990;-68
2022/07/07 00:06:37;;;;;;;;;;;;;;;29.34;32.17;101524.22;4420821;32;20004;-68
2022/07/07 00:09:03;;;;;;;;;;;;;;;30.01;30.75;101539.19;4420555;32;20066;-68
2022/07/07 00:11:29;;;;;;;;;;;;;;;30.35;30.37;101534.31;4422684;32;20007;-68
2022/07/07 00:13:55;;;;;;;;;;;;;;;29.63;31.45;101529.06;4415955;32;19969;-68
2022/07/07 00:16:21;;;;;;;;;;;;;;;30.53;30.15;101540.00;4419014;32;20422;-68
2022/07/07 00:18:48;;;;;;;;;;;;;;;30.39;30.09;101550.06;4420914;32;20428;-68
2022/07/07 00:21:13;;;;;;;;;;;;;;;30.46;30.22;101557.31;4419615;32;19965;-68
2022/07/07 00:23:39;;;;;;;;;;;;;;;30.46;30.08;101545.69;4419889;32;20351;-68
2022/07/07 00:26:05;;;;;;;;;;;;;;;29.46;31.47;101564.09;4422835;32;19999;-68
2022/07/07 00:28:30;;;;;;;;;;;;;;;29.62;31.34;101568.87;4420549;32;19953;-68
2022/07/07 00:30:56;;;;;;;;;;;;;;;29.22;31.86;101578.69;4418670;32;19986;-68
2022/07/07 00:33:21;;;;;;;;;;;;;;;29.57;31.23;101569.72;4421277;32;20380;-68
2022/07/07 00:35:47;;;;;;;;;;;;;;;29.59;31.22;101567.03;4419300;32;19964;-68
2022/07/07 00:38:12;;;;;;;;;;;;;;;29.58;31.01;101559.69;4417941;32;20555;-68
2022/07/07 00:40:38;;;;;;;;;;;;;;;29.29;31.52;101554.88;4422135;32;20357;-68
2022/07/07 00:43:04;;;;;;;;;;;;;;;29.48;31.04;101580.97;4421973;32;20224;-68
2022/07/07 00:45:30;;;;;;;;;;;;;;;30.04;30.43;101601.94;4420460;32;19996;-68
2022/07/07 00:47:56;;;;;;;;;;;;;;;29.82;30.46;101608.88;4420326;32;20046;-68
2022/07/07 00:50:22;;;;;;;;;;;;;;;29.86;30.51;101597.75;4421959;32;19961;-68
2022/07/07 00:52:47;;;;;;;;;;;;;;;29.65;30.98;101601.78;4422022;32;19996;-68
2022/07/07 00:55:13;;;;;;;;;;;;;;;29.19;31.67;101588.50;4418063;32;20031;-68
2022/07/07 00:57:38;;;;;;;;;;;;;;;28.78;32.38;101577.16;4419822;32;20304;-68
2022/07/07 01:00:06;;;;;;;;;;;;;;;28.25;33.27;101557.75;4422527;32;20020;-68
2022/07/07 01:02:32;;;;;;;;;;;;;;;28.66;32.60;101561.25;4420139;32;20402;-68
2022/07/07 01:04:59;;;;;;;;;;;;;;;29.14;31.73;101571.19;4419635;32;19965;-68
2022/07/07 01:07:25;;;;;;;;;;;;;;;28.98;31.78;101585.34;4419807;32;20240;-68
2022/07/07 01:09:50;;;;;;;;;;;;;;;29.85;30.48;101587.47;4421982;32;20011;-68
2022/07/07 01:12:16;;;;;;;;;;;;;;;29.66;30.85;101591.78;4421351;32;20373;-68
2022/07/07 01:14:42;;;;;;;;;;;;;;;28.68;32.20;101580.97;4418987;32;20008;-68
2022/07/07 01:17:07;;;;;;;;;;;;;;;28.80;32.17;101580.31;4420220;32;20405;-68
2022/07/07 01:19:32;;;;;;;;;;;;;;;29.74;30.61;101578.97;4419808;32;20476;-68
2022/07/07 01:22:00;;;;;;;;;;;;;;;29.28;31.20;101575.72;4417012;32;19953;-68
2022/07/07 01:24:27;;;;;;;;;;;;;;;28.29;33.03;101578.50;4420310;32;19989;-68
2022/07/07 01:29:44;;;;;;;;;;;;;;;28.87;32.44;101591.25;3949280;32;15819495;-68
2022/07/07 01:32:10;;;;;;;;;;;;;;;28.87;32.44;101591.25;4427135;32;19993;-68
2022/07/07 01:34:37;;;;;;;;;;;;;;;28.65;32.53;101608.12;4428546;32;19999;-68
2022/07/07 01:37:03;;;;;;;;;;;;;;;29.55;31.18;101606.41;4429064;32;20089;-68
2022/07/07 01:39:28;;;;;;;;;;;;;;;29.86;30.70;101608.56;4427071;32;19960;-68
2022/07/07 01:41:54;;;;;;;;;;;;;;;29.72;30.82;101601.94;4430364;32;20387;-68
2022/07/07 01:44:20;;;;;;;;;;;;;;;28.93;32.16;101599.91;4426059;32;19994;-68
2022/07/07 01:46:45;;;;;;;;;;;;;;;28.87;32.21;101605.00;4426971;32;19976;-68
2022/07/07 01:49:11;;;;;;;;;;;;;;;29.36;31.61;101611.47;4427341;32;19962;-68
2022/07/07 01:51:38;;;;;;;;;;;;;;;28.65;32.54;101608.94;4428271;32;20583;-68
2022/07/07 01:54:04;;;;;;;;;;;;;;;28.84;32.19;101606.84;4424530;32;19981;-68
2022/07/07 01:56:29;;;;;;;;;;;;;;;29.37;31.46;101610.13;4427936;32;20038;-68
2022/07/07 01:58:54;;;;;;;;;;;;;;;28.94;32.00;101610.94;4428258;32;19954;-68
2022/07/07 02:01:20;;;;;;;;;;;;;;;28.85;32.17;101617.13;4426036;32;20018;-69
2022/07/07 02:03:45;;;;;;;;;;;;;;;29.09;31.96;101615.53;4427319;32;19957;-69
2022/07/07 02:06:11;;;;;;;;;;;;;;;29.39;31.27;101621.97;4424516;32;20004;-68
2022/07/07 02:08:37;;;;;;;;;;;;;;;29.69;30.94;101628.41;4426837;32;20022;-68
2022/07/07 02:11:18;;;;;;;;;;;;;;;28.47;32.75;101624.13;4427765;32;20001;-68
2022/07/07 02:13:45;;;;;;;;;;;;;;;29.32;31.53;101634.19;4424907;32;20016;-68
2022/07/07 02:16:12;;;;;;;;;;;;;;;28.76;32.18;101639.87;4427195;32;20351;-68
2022/07/07 02:18:38;;;;;;;;;;;;;;;28.96;31.94;101634.34;4428462;32;20047;-68
2022/07/07 02:21:05;;;;;;;;;;;;;;;29.15;31.51;101643.13;4428835;32;19962;-68
2022/07/07 02:23:31;;;;;;;;;;;;;;;28.94;32.04;101639.94;4426437;32;19960;-68
2022/07/07 02:25:57;;;;;;;;;;;;;;;28.87;32.00;101645.56;4425919;32;20009;-68
2022/07/07 02:28:23;;;;;;;;;;;;;;;28.43;32.65;101635.22;4426371;32;20036;-68
2022/07/07 02:30:50;;;;;;;;;;;;;;;29.00;31.94;101639.84;4427686;32;19960;-68
2022/07/07 02:33:15;;;;;;;;;;;;;;;29.71;30.78;101646.81;4426608;32;19973;-68
2022/07/07 02:35:41;;;;;;;;;;;;;;;29.00;31.64;101643.53;4426813;32;21139;-68
2022/07/07 02:38:06;;;;;;;;;;;;;;;29.61;30.72;101654.31;4426708;32;19996;-68
2022/07/07 02:40:31;;;;;;;;;;;;;;;29.58;31.02;101654.63;4420206;32;19995;-68
2022/07/07 02:42:57;;;;;;;;;;;;;;;29.41;31.17;101663.56;4416693;32;20007;-68
2022/07/07 02:45:23;;;;;;;;;;;;;;;29.56;30.99;101657.28;4415940;32;20004;-68
2022/07/07 02:47:48;;;;;;;;;;;;;;;29.75;30.58;101652.28;4417129;32;20393;-68
2022/07/07 02:50:14;;;;;;;;;;;;;;;29.98;30.47;101651.38;4417887;32;19994;-68
2022/07/07 02:52:39;;;;;;;;;;;;;;;28.97;32.07;101661.25;4415694;32;19989;-68
2022/07/07 02:55:05;;;;;;;;;;;;;;;28.73;32.44;101656.25;4416876;32;19999;-68
2022/07/07 02:57:31;;;;;;;;;;;;;;;29.37;31.54;101668.13;4418617;32;20036;-68
2022/07/07 02:59:56;;;;;;;;;;;;;;;29.65;31.08;101678.03;4414589;32;20585;-68
2022/07/07 03:02:22;;;;;;;;;;;;;;;29.93;30.68;101675.47;4416399;32;19993;-68
2022/07/07 03:04:48;;;;;;;;;;;;;;;29.98;30.50;101673.81;4416956;32;20446;-68
2022/07/07 03:07:13;;;;;;;;;;;;;;;29.70;30.76;101679.28;4417210;32;20085;-68
2022/07/07 03:09:39;;;;;;;;;;;;;;;30.15;30.32;101680.91;4417913;32;20313;-68
2022/07/07 03:12:05;;;;;;;;;;;;;;;30.07;30.50;101679.22;4413768;32;19989;-68
2022/07/07 03:14:31;;;;;;;;;;;;;;;29.72;30.94;101688.19;4417177;32;19999;-68
2022/07/07 03:16:56;;;;;;;;;;;;;;;29.95;30.72;101684.41;4414499;32;20017;-68
2022/07/07 03:19:22;;;;;;;;;;;;;;;30.14;30.40;101673.53;4416151;32;20257;-68
2022/07/07 03:21:48;;;;;;;;;;;;;;;29.67;31.01;101689.88;4400606;32;20398;-68
2022/07/07 03:24:13;;;;;;;;;;;;;;;29.81;30.98;101684.91;4419137;32;19968;-69
2022/07/07 03:26:38;;;;;;;;;;;;;;;29.72;30.90;101697.69;4414201;32;20012;-69
2022/07/07 03:29:04;;;;;;;;;;;;;;;29.88;30.79;101692.97;4414832;32;19965;-68
2022/07/07 03:31:29;;;;;;;;;;;;;;;30.18;30.37;101691.44;4417027;32;19993;-68
2022/07/07 03:33:55;;;;;;;;;;;;;;;29.88;30.76;101698.78;4415415;32;21220;-68
2022/07/07 03:36:20;;;;;;;;;;;;;;;29.82;30.68;101698.09;4414347;32;19949;-68
2022/07/07 03:38:46;;;;;;;;;;;;;;;30.18;30.40;101705.13;4417485;32;20443;-68
2022/07/07 03:41:11;;;;;;;;;;;;;;;29.92;30.72;101702.16;4416382;32;20664;-68
2022/07/07 03:43:38;;;;;;;;;;;;;;;30.07;30.54;101709.00;4415300;32;20029;-68
2022/07/07 03:46:04;;;;;;;;;;;;;;;30.38;30.07;101719.91;4413833;32;19981;-68
2022/07/07 03:48:29;;;;;;;;;;;;;;;30.08;30.46;101722.22;4413055;32;20012;-68
2022/07/07 03:50:55;;;;;;;;;;;;;;;30.08;30.61;101716.41;4417775;32;20620;-68
2022/07/07 03:53:21;;;;;;;;;;;;;;;29.85;30.87;101723.12;4417528;32;19972;-68
2022/07/07 03:55:46;;;;;;;;;;;;;;;30.04;30.60;101715.94;4415691;32;20005;-68
2022/07/07 03:58:12;;;;;;;;;;;;;;;30.18;30.43;101713.84;4413752;32;19957;-68
2022/07/07 04:00:37;;;;;;;;;;;;;;;30.28;30.31;101718.72;4417085;32;20320;-68
2022/07/07 04:03:03;;;;;;;;;;;;;;;30.53;29.87;101719.38;4415582;32;20404;-68
2022/07/07 04:05:28;;;;;;;;;;;;;;;30.50;29.67;101726.28;4416200;32;20006;-68
2022/07/07 04:07:54;;;;;;;;;;;;;;;30.61;29.75;101723.16;4414064;32;19962;-68
2022/07/07 04:10:19;;;;;;;;;;;;;;;30.66;29.62;101728.91;4410936;32;20015;-68
2022/07/07 04:12:45;;;;;;;;;;;;;;;30.88;29.33;101735.63;4415341;32;20541;-68
2022/07/07 04:15:10;;;;;;;;;;;;;;;30.90;29.32;101745.37;4417238;32;20034;-68
2022/07/07 04:17:36;;;;;;;;;;;;;;;31.03;29.21;101745.41;4415051;32;20005;-68
2022/07/07 04:20:03;;;;;;;;;;;;;;;31.31;28.96;101751.47;4416463;32;20024;-68
2022/07/07 04:22:29;;;;;;;;;;;;;;;31.37;28.67;101751.34;4414404;32;19997;-68
2022/07/07 04:24:55;;;;;;;;;;;;;;;31.19;28.62;101752.19;4417015;32;19988;-68
2022/07/07 04:27:20;;;;;;;;;;;;;;;31.22;28.66;101756.91;4417463;32;19992;-68
2022/07/07 04:29:45;;;;;;;;;;;;;;;30.62;29.49;101745.09;4417197;32;19997;-68
2022/07/07 04:32:12;;;;;;;;;;;;;;;31.45;28.32;101764.66;4412954;32;20355;-68
2022/07/07 04:34:37;;;;;;;;;;;;;;;31.42;28.53;101770.81;4416924;32;20058;-68
2022/07/07 04:37:03;;;;;;;;;;;;;;;31.65;28.25;101772.69;4418478;32;20434;-68
2022/07/07 04:39:29;;;;;;;;;;;;;;;31.91;27.92;101780.59;4414212;32;19996;-68
2022/07/07 04:41:54;;;;;;;;;;;;;;;31.91;27.90;101780.59;4414837;32;19971;-68
2022/07/07 04:44:19;;;;;;;;;;;;;;;31.48;28.41;101769.34;4415912;32;19998;-68
2022/07/07 04:46:45;;;;;;;;;;;;;;;31.58;28.21;101781.31;4417272;32;20011;-69
2022/07/07 04:49:10;;;;;;;;;;;;;;;32.01;27.44;101785.41;4416516;32;20354;-68
2022/07/07 04:51:37;;;;;;;;;;;;;;;31.98;27.67;101794.47;4417445;32;19953;-68
2022/07/07 04:54:03;;;;;;;;;;;;;;;31.45;28.24;101787.94;4413867;32;20023;-68
2022/07/07 04:56:28;;;;;;;;;;;;;;;31.41;28.32;101793.28;4414310;32;19965;-68
2022/07/07 04:58:54;;;;;;;;;;;;;;;31.80;27.99;101795.38;4413229;32;19993;-68
2022/07/07 05:01:19;;;;;;;;;;;;;;;31.82;28.03;101795.63;4415632;32;20005;-68
2022/07/07 05:03:45;;;;;;;;;;;;;;;32.05;27.50;101817.84;4412975;32;19991;-68
2022/07/07 05:06:10;;;;;;;;;;;;;;;32.04;27.70;101812.59;4415587;32;20021;-68
2022/07/07 05:08:36;;;;;;;;;;;;;;;32.43;27.13;101822.00;4415446;32;19961;-68
2022/07/07 05:11:02;;;;;;;;;;;;;;;32.41;26.99;101826.84;4414827;32;20006;-68
2022/07/07 05:13:27;;;;;;;;;;;;;;;31.51;28.26;101831.47;4416280;32;19965;-68
2022/07/07 05:15:53;;;;;;;;;;;;;;;31.41;28.54;101833.25;4417724;32;19965;-68
2022/07/07 05:18:18;;;;;;;;;;;;;;;31.58;28.33;101834.50;4415109;32;20001;-68
2022/07/07 05:20:44;;;;;;;;;;;;;;;31.29;28.38;101835.59;4417111;32;20389;-68
2022/07/07 05:23:10;;;;;;;;;;;;;;;31.75;28.22;101834.91;4415928;32;20039;-68
2022/07/07 05:25:36;;;;;;;;;;;;;;;31.73;28.11;101842.63;4415132;32;19957;-68
2022/07/07 05:28:01;;;;;;;;;;;;;;;31.76;28.00;101829.87;4414825;32;19961;-68
2022/07/07 05:30:27;;;;;;;;;;;;;;;31.94;27.62;101840.63;4415691;32;19999;-68
2022/07/07 05:32:52;;;;;;;;;;;;;;;31.83;27.62;101844.56;4415233;32;19961;-68
2022/07/07 05:35:17;;;;;;;;;;;;;;;32.21;26.98;101850.87;4416286;32;20400;-68
2022/07/07 05:37:43;;;;;;;;;;;;;;;32.10;26.84;101856.94;4417087;32;19958;-68
2022/07/07 05:40:09;;;;;;;;;;;;;;;32.42;26.67;101864.16;4415603;32;20310;-68
2022/07/07 05:42:34;;;;;;;;;;;;;;;32.51;26.96;101869.50;4414290;32;19977;-68
2022/07/07 05:45:00;;;;;;;;;;;;;;;32.49;26.73;101866.38;4417897;32;19978;-68
2022/07/07 05:47:26;;;;;;;;;;;;;;;32.92;26.21;101865.09;4412334;32;19997;-68
2022/07/07 05:49:53;;;;;;;;;;;;;;;32.75;26.01;101879.25;4413274;32;20000;-68
2022/07/07 05:52:19;;;;;;;;;;;;;;;33.15;25.75;101871.88;4402477;32;19954;-68
2022/07/07 05:54:44;;;;;;;;;;;;;;;32.28;26.81;101883.00;4415157;32;20017;-68
2022/07/07 05:57:10;;;;;;;;;;;;;;;32.26;26.63;101879.09;4411611;32;19957;-68
2022/07/07 05:59:36;;;;;;;;;;;;;;;32.50;26.43;101882.53;4413198;32;19973;-68
2022/07/07 06:02:01;;;;;;;;;;;;;;;33.06;25.79;101893.59;4414534;32;20039;-68
2022/07/07 06:04:27;;;;;;;;;;;;;;;33.48;25.24;101903.91;4415798;32;20044;-68
2022/07/07 06:06:53;;;;;;;;;;;;;;;32.90;25.66;101912.31;4413731;32;20345;-68
2022/07/07 06:09:18;;;;;;;;;;;;;;;33.10;25.14;101908.59;4416412;32;20382;-68
2022/07/07 06:11:44;;;;;;;;;;;;;;;33.75;24.65;101922.00;4416610;32;20007;-68
2022/07/07 06:14:10;;;;;;;;;;;;;;;33.75;24.37;101924.94;4415385;32;20002;-68
2022/07/07 06:16:38;;;;;;;;;;;;;;;32.26;26.44;101920.66;4416419;32;20001;-68
2022/07/07 06:19:05;;;;;;;;;;;;;;;33.87;24.61;101935.72;4419790;32;20537;-68
2022/07/07 06:21:30;;;;;;;;;;;;;;;34.19;24.18;101941.16;4417634;32;19966;-68
2022/07/07 06:23:56;;;;;;;;;;;;;;;33.58;24.64;101934.16;4416117;32;19971;-68
2022/07/07 06:26:22;;;;;;;;;;;;;;;34.01;24.46;101940.12;4417856;32;19966;-68
2022/07/07 06:28:47;;;;;;;;;;;;;;;34.51;23.90;101943.69;4405825;32;20460;-69
2022/07/07 06:31:13;;;;;;;;;;;;;;;34.65;23.74;101942.94;4405621;32;20356;-69
2022/07/07 06:33:39;;;;;;;;;;;;;;;34.01;24.23;101940.12;4413235;32;20011;-69
2022/07/07 06:36:05;;;;;;;;;;;;;;;34.25;23.67;101947.63;4392977;32;19996;-69
2022/07/07 06:38:31;;;;;;;;;;;;;;;33.99;24.16;101956.66;4414012;32;19958;-69
2022/07/07 06:40:57;;;;;;;;;;;;;;;34.05;24.10;101957.28;4414195;32;20039;-69
2022/07/07 06:43:22;;;;;;;;;;;;;;;34.18;24.15;101957.16;4405360;32;20001;-70
2022/07/07 06:45:48;;;;;;;;;;;;;;;34.14;23.90;101966.28;4408285;32;20005;-69
2022/07/07 06:48:13;;;;;;;;;;;;;;;33.73;24.27;101966.38;4408652;32;19972;-69
2022/07/07 06:50:39;;;;;;;;;;;;;;;34.05;23.92;101974.81;4409390;32;19992;-69
2022/07/07 06:53:07;;;;;;;;;;;;;;;33.69;24.41;101982.69;4409621;32;19996;-70
2022/07/07 06:55:32;;;;;;;;;;;;;;;34.13;23.75;101990.22;4410517;32;19993;-69
2022/07/07 06:57:58;;;;;;;;;;;;;;;33.58;24.29;101980.88;4406171;32;20729;-69
2022/07/07 07:00:24;;;;;;;;;;;;;;;33.50;24.58;101985.84;4412982;32;20053;-69
2022/07/07 07:02:50;;;;;;;;;;;;;;;33.60;24.64;101986.13;4392313;32;20350;-69
2022/07/07 07:05:16;;;;;;;;;;;;;;;33.83;24.23;101987.88;4409340;32;20423;-69
2022/07/07 07:07:42;;;;;;;;;;;;;;;33.72;24.27;101991.09;4413246;32;20371;-69
2022/07/07 07:10:08;;;;;;;;;;;;;;;34.01;24.10;101998.53;4409399;32;20023;-69
2022/07/07 07:12:34;;;;;;;;;;;;;;;33.89;24.22;101988.53;4409691;32;19957;-69
2022/07/07 07:15:01;;;;;;;;;;;;;;;34.04;23.75;101996.59;4408148;32;19988;-68
2022/07/07 07:17:26;;;;;;;;;;;;;;;34.68;23.02;102000.28;4408260;32;20951;-68
2022/07/07 07:19:52;;;;;;;;;;;;;;;34.20;23.69;102004.91;4404806;32;19999;-68
2022/07/07 07:22:18;;;;;;;;;;;;;;;35.06;22.81;102003.37;4403900;32;20568;-69
2022/07/07 07:24:43;;;;;;;;;;;;;;;35.13;22.89;102000.44;4393821;32;20020;-70
2022/07/07 07:27:09;;;;;;;;;;;;;;;34.73;23.01;102001.47;4408661;32;20348;-70
2022/07/07 07:29:35;;;;;;;;;;;;;;;34.41;23.44;102004.84;4405287;32;19965;-69
2022/07/07 07:32:01;;;;;;;;;;;;;;;34.58;23.34;102005.12;4407324;32;20608;-69
2022/07/07 07:34:27;;;;;;;;;;;;;;;34.77;23.13;102008.50;4409071;32;20024;-69
2022/07/07 07:36:53;;;;;;;;;;;;;;;35.23;22.71;102010.22;4414156;32;19977;-69
2022/07/07 07:39:18;;;;;;;;;;;;;;;34.62;23.07;102008.44;4409046;32;20005;-69
2022/07/07 07:41:43;;;;;;;;;;;;;;;34.73;23.21;102008.12;4411758;32;19965;-70
2022/07/07 07:44:09;;;;;;;;;;;;;;;34.64;23.26;102008.66;4413310;32;20054;-70
2022/07/07 07:46:35;;;;;;;;;;;;;;;35.46;22.32;102016.91;4408512;32;20011;-69
2022/07/07 07:49:05;;;;;;;;;;;;;;;35.31;22.38;102016.09;4405613;32;20027;-70
2022/07/07 07:51:32;;;;;;;;;;;;;;;35.90;21.76;102020.44;4408829;32;19977;-71
2022/07/07 07:53:57;;;;;;;;;;;;;;;35.61;22.11;102028.62;4404870;32;20021;-70
2022/07/07 07:56:23;;;;;;;;;;;;;;;35.81;21.81;102024.75;4406828;32;19997;-71
2022/07/07 07:58:48;;;;;;;;;;;;;;;35.28;22.37;102026.81;4409124;32;19995;-70
2022/07/07 08:01:14;;;;;;;;;;;;;;;35.27;22.35;102022.31;4408339;32;20057;-70
2022/07/07 08:03:41;;;;;;;;;;;;;;;35.32;22.32;102018.44;4407413;32;20382;-69
2022/07/07 08:06:08;;;;;;;;;;;;;;;35.64;21.98;102026.66;4407877;32;20104;-70
2022/07/07 08:08:34;;;;;;;;;;;;;;;34.98;22.55;102028.88;4407800;32;20499;-71
2022/07/07 08:11:00;;;;;;;;;;;;;;;34.89;22.81;102041.94;4409241;32;19997;-70
2022/07/07 08:13:25;;;;;;;;;;;;;;;35.32;22.30;102047.72;4405080;32;20092;-70
2022/07/07 08:15:51;;;;;;;;;;;;;;;35.82;21.78;102046.81;4406040;32;20053;-70
2022/07/07 08:18:16;;;;;;;;;;;;;;;35.54;21.75;102061.63;4409168;32;19993;-70
2022/07/07 08:20:42;;;;;;;;;;;;;;;35.77;21.48;102062.41;4405270;32;20036;-71
2022/07/07 08:23:07;;;;;;;;;;;;;;;35.97;21.29;102055.62;4405661;32;19996;-70
2022/07/07 08:25:33;;;;;;;;;;;;;;;36.03;21.10;102056.19;4410959;32;19971;-68
2022/07/07 08:27:59;;;;;;;;;;;;;;;36.52;20.80;102060.78;4408852;32;19985;-69
2022/07/07 08:30:25;;;;;;;;;;;;;;;36.85;20.47;102056.59;4408581;32;20543;-69
2022/07/07 08:32:50;;;;;;;;;;;;;;;37.54;19.86;102064.44;4408974;32;19985;-69
2022/07/07 08:35:16;;;;;;;;;;;;;;;37.38;19.89;102062.97;4403826;32;19973;-69
2022/07/07 08:37:42;;;;;;;;;;;;;;;37.38;19.69;102062.97;4408124;32;20945;-70
2022/07/07 08:40:07;;;;;;;;;;;;;;;37.56;19.67;102068.34;4408443;32;20524;-70
2022/07/07 08:42:33;;;;;;;;;;;;;;;37.76;19.34;102081.16;4407694;32;19957;-69
2022/07/07 08:44:58;;;;;;;;;;;;;;;36.80;20.24;102073.06;4407928;32;20386;-68
2022/07/07 08:47:25;;;;;;;;;;;;;;;37.69;19.02;102085.69;4403432;32;20540;-69
2022/07/07 08:49:51;;;;;;;;;;;;;;;37.93;18.61;102095.88;4404134;32;19977;-70
2022/07/07 08:52:16;;;;;;;;;;;;;;;36.78;19.74;102086.75;4403875;32;20461;-70
2022/07/07 08:54:42;;;;;;;;;;;;;;;37.39;19.28;102096.88;4406825;32;20016;-70
2022/07/07 08:57:11;;;;;;;;;;;;;;;36.96;19.51;102103.88;4407009;32;20025;-69
2022/07/07 08:59:37;;;;;;;;;;;;;;;37.20;19.07;102099.50;4407779;32;19995;-70
2022/07/07 09:02:02;;;;;;;;;;;;;;;36.60;19.53;102106.34;4407926;32;19984;-69
2022/07/07 09:04:28;;;;;;;;;;;;;;;36.85;19.44;102100.63;4405366;32;20031;-69
2022/07/07 09:06:54;;;;;;;;;;;;;;;37.72;18.61;102101.34;4404443;32;20465;-69
2022/07/07 09:09:27;;;;;;;;;;;;;;;38.16;18.15;102108.25;4408001;32;20270;-69
2022/07/07 09:11:58;;;;;;;;;;;;;;;38.34;17.96;102109.06;4406941;32;20583;-69
2022/07/07 09:14:24;;;;;;;;;;;;;;;37.95;18.17;102111.53;4408391;32;20000;-69
2022/07/07 09:16:49;;;;;;;;;;;;;;;38.07;17.92;102105.19;4406912;32;20303;-69
2022/07/07 09:19:17;;;;;;;;;;;;;;;37.31;18.71;102110.81;4407025;32;19991;-68
2022/07/07 09:21:43;;;;;;;;;;;;;;;37.54;18.59;102117.31;4407916;32;20064;-69
2022/07/07 09:24:09;;;;;;;;;;;;;;;37.41;18.53;102127.19;4408160;32;20409;-70
2022/07/07 09:26:36;;;;;;;;;;;;;;;37.01;18.88;102117.59;4404686;32;19997;-68
2022/07/07 09:29:02;;;;;;;;;;;;;;;37.41;18.48;102123.47;4407001;32;20386;-69
2022/07/07 09:31:47;;;;;;;;;;;;;;;37.42;18.44;102125.00;4409217;32;20020;-69
2022/07/07 09:34:13;;;;;;;;;;;;;;;36.72;19.14;102127.25;4402441;32;20096;-69
2022/07/07 09:39:24;;;;;;;;;;;;;;;35.67;20.23;102145.59;4397170;32;19969;-68
2022/07/07 09:41:51;;;;;;;;;;;;;;;37.13;18.87;102138.47;4408222;32;20049;-70
2022/07/07 09:44:19;;;;;;;;;;;;;;;37.45;18.40;102141.44;4402921;32;20382;-70
2022/07/07 09:46:44;;;;;;;;;;;;;;;37.36;18.54;102139.19;4407156;32;20004;-70
2022/07/07 09:49:12;;;;;;;;;;;;;;;36.31;19.44;102136.50;4401282;32;20485;-70
2022/07/07 09:51:37;;;;;;;;;;;;;;;36.81;18.89;102138.41;4406014;32;19985;-70
2022/07/07 09:54:05;;;;;;;;;;;;;;;37.03;18.66;102141.25;4410135;32;19994;-70
2022/07/07 09:56:33;;;;;;;;;;;;;;;37.57;18.35;102143.34;4410398;32;19968;-70
2022/07/07 09:58:59;;;;;;;;;;;;;;;37.52;18.29;102158.28;4407444;32;20116;-70
2022/07/07 10:01:26;;;;;;;;;;;;;;;37.17;18.50;102150.56;4408682;32;19991;-69
2022/07/07 10:03:57;;;;;;;;;;;;;;;37.76;18.18;102155.37;4409245;32;19985;-69
2022/07/07 10:06:25;;;;;;;;;;;;;;;37.86;18.09;102140.84;4407217;32;20619;-68
2022/07/07 10:08:54;;;;;;;;;;;;;;;36.75;19.05;102140.75;4410541;32;20021;-69
2022/07/07 10:11:21;;;;;;;;;;;;;;;38.34;17.84;102139.25;4409515;32;20004;-69
2022/07/07 10:13:48;;;;;;;;;;;;;;;38.92;17.15;102144.34;4408829;32;20401;-69
2022/07/07 10:16:14;;;;;;;;;;;;;;;38.88;17.29;102138.13;4401233;32;20913;-69
2022/07/07 10:18:41;;;;;;;;;;;;;;;39.70;16.68;102136.22;4399864;32;20016;-69
2022/07/07 10:21:07;;;;;;;;;;;;;;;40.80;15.87;102138.47;4410706;32;20016;-69
2022/07/07 10:23:34;;;;;;;;;;;;;;;41.12;15.46;102146.09;4409661;32;19974;-70
2022/07/07 10:26:03;;;;;;;;;;;;;;;41.64;14.84;102147.12;4410405;32;20345;-70
2022/07/07 10:28:48;;;;;;;;;;;;;;;42.11;14.24;102139.50;4403126;32;20040;-69
2022/07/07 10:31:30;;;;;;;;;;;;;;;42.44;14.21;102152.22;4408615;32;19957;-69
2022/07/07 10:34:01;;;;;;;;;;;;;;;43.01;13.64;102149.59;4408070;32;20514;-70
2022/07/07 10:36:53;;;;;;;;;;;;;;;42.47;14.04;102153.91;4411043;32;20056;-70
2022/07/07 10:39:21;;;;;;;;;;;;;;;42.42;13.77;102158.78;4408327;32;20037;-68
2022/07/07 10:41:54;;;;;;;;;;;;;;;42.78;13.53;102152.47;4406140;32;20003;-69
2022/07/07 10:44:21;;;;;;;;;;;;;;;43.25;13.35;102173.47;4402176;32;19973;-69
2022/07/07 10:47:07;;;;;;;;;;;;;;;42.61;13.76;102167.53;4407172;32;19957;-70
2022/07/07 10:49:38;;;;;;;;;;;;;;;43.05;13.41;102164.72;4408554;32;19986;-70
2022/07/07 10:52:08;;;;;;;;;;;;;;;42.21;14.13;102175.72;4406556;32;20033;-69
2022/07/07 10:54:35;;;;;;;;;;;;;;;42.16;14.29;102164.97;4403766;32;19977;-69
2022/07/07 10:59:56;;;;;;;;;;;;;;;42.23;14.24;102167.75;3944570;32;15731481;-69
2022/07/07 11:02:39;;;;;;;;;;;;;;;42.23;14.24;102167.75;4419332;32;20413;-69
2022/07/07 11:05:24;;;;;;;;;;;;;;;41.45;14.80;102164.88;4413009;32;19984;-69
2022/07/07 11:13:14;;;;;;;;;;;;;;;42.68;13.86;102160.66;3942301;32;15722561;-70
2022/07/07 11:15:40;;;;;;;;;;;;;;;42.97;13.56;102163.38;4414370;32;19953;-70
2022/07/07 11:18:09;;;;;;;;;;;;;;;41.99;14.21;102168.19;4415496;32;20027;-70
2022/07/07 11:20:35;;;;;;;;;;;;;;;40.83;15.25;102172.66;4418078;32;20037;-70
2022/07/07 11:23:15;;;;;;;;;;;;;;;41.65;14.63;102172.31;4415329;32;20257;-70
2022/07/07 11:25:41;;;;;;;;;;;;;;;41.42;14.63;102169.09;4411284;32;19981;-69
2022/07/07 11:28:08;;;;;;;;;;;;;;;42.01;14.21;102166.16;4413002;32;20326;-69
2022/07/07 11:30:33;;;;;;;;;;;;;;;42.69;13.75;102174.06;4414236;32;20037;-69
2022/07/07 11:33:00;;;;;;;;;;;;;;;42.40;14.10;102187.47;4409120;32;20084;-69
2022/07/07 11:35:29;;;;;;;;;;;;;;;41.64;14.57;102182.59;4402531;32;20021;-69
2022/07/07 11:37:55;;;;;;;;;;;;;;;42.68;13.85;102192.44;4412360;32;20179;-70
2022/07/07 11:42:56;;;;;;;;;;;;;;;43.29;13.17;102203.37;3945702;32;15725574;-69
2022/07/07 11:45:22;;;;;;;;;;;;;;;43.29;13.17;102203.37;4419069;32;20020;-69
2022/07/07 11:47:50;;;;;;;;;;;;;;;43.68;12.98;102199.37;4420904;32;20042;-69
2022/07/07 11:50:16;;;;;;;;;;;;;;;43.12;13.35;102185.91;4422644;32;20011;-70
2022/07/07 11:52:51;;;;;;;;;;;;;;;44.18;12.72;102193.03;4421063;32;19997;-70
2022/07/07 11:55:18;;;;;;;;;;;;;;;44.17;12.62;102195.22;4421894;32;20400;-69
2022/07/07 11:57:49;;;;;;;;;;;;;;;44.40;12.56;102207.13;4424940;32;20540;-69
2022/07/07 12:00:19;;;;;;;;;;;;;;;43.65;12.90;102197.69;4418029;32;20024;-70
2022/07/07 12:02:46;;;;;;;;;;;;;;;42.88;13.29;102197.59;4417034;32;20003;-69
2022/07/07 12:05:14;;;;;;;;;;;;;;;42.70;13.60;102204.44;4423972;32;20298;-70
2022/07/07 12:07:42;;;;;;;;;;;;;;;43.35;12.90;102195.66;4427045;32;20056;-69
2022/07/07 12:10:20;;;;;;;;;;;;;;;43.20;12.98;102195.34;4421272;32;20042;-69
2022/07/07 12:12:54;;;;;;;;;;;;;;;43.69;12.90;102203.13;4425441;32;20020;-69
2022/07/07 12:15:21;;;;;;;;;;;;;;;44.13;12.60;102200.91;4422214;32;20311;-68
2022/07/07 12:17:47;;;;;;;;;;;;;;;45.33;11.80;102204.69;4428570;32;19991;-68
2022/07/07 12:20:15;;;;;;;;;;;;;;;45.05;11.92;102193.34;4421331;32;19996;-69
2022/07/07 12:22:43;;;;;;;;;;;;;;;45.40;11.75;102206.66;4421140;32;20044;-69
2022/07/07 12:25:10;;;;;;;;;;;;;;;46.29;11.38;102197.66;4422846;32;19991;-69
2022/07/07 12:27:55;;;;;;;;;;;;;;;47.05;11.04;102198.06;4426311;32;19992;-70
2022/07/07 12:30:21;;;;;;;;;;;;;;;48.13;10.53;102200.56;4423404;32;19988;-70
2022/07/07 12:32:47;;;;;;;;;;;;;;;47.48;10.78;102211.50;4420599;32;21422;-70
2022/07/07 12:35:31;;;;;;;;;;;;;;;48.13;10.47;102209.53;4428282;32;20375;-70
2022/07/07 12:37:58;;;;;;;;;;;;;;;46.95;11.08;102206.47;4423377;32;19964;-70
2022/07/07 12:40:25;;;;;;;;;;;;;;;46.93;11.26;102204.19;4421739;32;20473;-69
2022/07/07 12:42:51;;;;;;;;;;;;;;;45.39;12.23;102190.22;4418717;32;20538;-70
2022/07/07 12:45:20;;;;;;;;;;;;;;;45.10;12.47;102192.16;4417456;32;19988;-70
2022/07/07 12:47:47;;;;;;;;;;;;;;;44.67;12.80;102185.81;4425058;32;19992;-70
2022/07/07 12:50:13;;;;;;;;;;;;;;;45.41;12.32;102174.69;4427035;32;20377;-70